Dayton, OH (45417)

6:09 PM EDT on July 25, 2016 (GMT -0400)
Sinclair Dayton Campus | | Change Station

Elev 780 ft 39.76 °N, 84.20 °W | Updated 12 seconds ago

Mostly Cloudy
Mostly Cloudy
91.9 °F
Feels Like 98 °F
N
11.5
Wind Variable Wind from WNW
Gusts 11.5 mph

Today
High -- | Low -- °F
--% Chance of Precip.
Yesterday
High -- | Low -- °F
Precip. -- in
Pressure 29.95 in
Visibility 10.0 miles
Clouds Few 5000 ft
Scattered Clouds 14000 ft
Mostly Cloudy 25000 ft
Heat Index 98 °F
Dew Point 70 °F
Humidity 49%
Rainfall 0.00 in
Snow Depth Not available.
6:30 AM 8:56 PM
Waning Gibbous, 62% visible
METAR KDAY 252156Z 26010KT 10SM FEW050 SCT140 BKN250 31/19 A2998 RMK AO2 SLP141 TCU DSNT SE THN BKN LYR T03110194
Pressure 29.95 in
Visibility 10.0 miles
Clouds Few 5000 ft
Scattered Clouds 14000 ft
Mostly Cloudy 25000 ft
Heat Index 98 °F
Dew Point 70 °F
Humidity 49%
Rainfall 0.00 in
Snow Depth Not available.
6:30 AM 8:56 PM
Waning Gibbous, 62% visible
METAR KDAY 252156Z 26010KT 10SM FEW050 SCT140 BKN250 31/19 A2998 RMK AO2 SLP141 TCU DSNT SE THN BKN LYR T03110194
Record highs are possible for parts of the Northeast Monday and Tuesday, as parts of the central U.S. take a little breather from the worst of summer's dog day heat.

Expansive high pressure in the upper atmosphere will focus on parts of the East and West this week, sending heat indices well into the triple digits from the Mid-Atlantic states into the South.

10-Day Weather Forecast

Almanac

Astronomy

Jul. 25, 2016 Rise Set
Actual Time
Civil Twilight
Nautical Twilight
Astronomical Twilight
Moon
Length of Visible Light
Length of Day
Tomorrow will be .
, % of the Moon is Illuminated

Today's Extremes

State Highs State Lows

Community

WunderPhotos

Upload Photos

1,927,426 photos uploaded!

WunderBlog® & News

Nearby

Air Quality

  Air Quality AQ Index Pollutant
Not available.

Snow Depth

Station Depth Elevation

Earthquake Activity

City Distance Mag. Time & Date
Minimum magnitude displayed is 2.5.

Coastal Water Temperatures

Place Temperature

Stations

Nearby Weather Stations

Station Location Temp. Windchill Dew Point Humidity Wind Precip. Elev Updated Type
                   

Watches & Warnings

There are currently no watches in effect.